sensor_id;sensor_type;location;lat;lon;timestamp;P1;P2;P0
64861;PMS5003;62652;42.274;-71.436;2024-03-02T00:00:00;7.07;5.57;4.07
64861;PMS5003;62652;42.274;-71.436;2024-03-02T00:01:00;6.50;6.33;4.17
64861;PMS5003;62652;42.274;-71.436;2024-03-02T00:02:00;5.83;5.00;3.80
64861;PMS5003;62652;42.274;-71.436;2024-03-02T00:03:00;6.73;6.30;4.00
64861;PMS5003;62652;42.274;-71.436;2024-03-02T00:04:00;5.33;4.97;3.73
64861;PMS5003;62652;42.274;-71.436;2024-03-02T00:05:00;5.73;5.73;4.20
64861;PMS5003;62652;42.274;-71.436;2024-03-02T00:06:00;6.40;5.77;4.33
64861;PMS5003;62652;42.274;-71.436;2024-03-02T00:07:00;6.67;6.13;4.83
64861;PMS5003;62652;42.274;-71.436;2024-03-02T00:08:00;8.23;8.03;5.50
64861;PMS5003;62652;42.274;-71.436;2024-03-02T00:09:00;9.80;8.03;5.40
64861;PMS5003;62652;42.274;-71.436;2024-03-02T00:10:00;9.57;9.43;6.27
64861;PMS5003;62652;42.274;-71.436;2024-03-02T00:11:00;8.37;6.77;4.87
64861;PMS5003;62652;42.274;-71.436;2024-03-02T00:12:00;7.47;7.30;5.43
64861;PMS5003;62652;42.274;-71.436;2024-03-02T00:13:00;6.20;5.23;4.00
64861;PMS5003;62652;42.274;-71.436;2024-03-02T00:14:00;6.40;6.30;4.17
64861;PMS5003;62652;42.274;-71.436;2024-03-02T00:15:00;5.67;5.67;4.37
64861;PMS5003;62652;42.274;-71.436;2024-03-02T00:16:00;7.50;6.87;4.50
64861;PMS5003;62652;42.274;-71.436;2024-03-02T00:17:00;8.63;8.33;4.50
64861;PMS5003;62652;42.274;-71.436;2024-03-02T00:18:00;7.97;6.63;4.33
64861;PMS5003;62652;42.274;-71.436;2024-03-02T00:19:01;5.97;4.70;4.10
64861;PMS5003;62652;42.274;-71.436;2024-03-02T00:20:03;8.13;6.37;4.47
64861;PMS5003;62652;42.274;-71.436;2024-03-02T00:21:00;5.77;5.50;4.23
64861;PMS5003;62652;42.274;-71.436;2024-03-02T00:22:00;5.97;5.47;4.63
64861;PMS5003;62652;42.274;-71.436;2024-03-02T00:23:02;6.13;5.90;4.63
64861;PMS5003;62652;42.274;-71.436;2024-03-02T00:24:01;6.33;6.07;5.13
64861;PMS5003;62652;42.274;-71.436;2024-03-02T00:25:00;7.50;6.60;4.20
64861;PMS5003;62652;42.274;-71.436;2024-03-02T00:26:00;7.97;7.30;4.10
64861;PMS5003;62652;42.274;-71.436;2024-03-02T00:27:00;6.80;5.43;4.83
64861;PMS5003;62652;42.274;-71.436;2024-03-02T00:28:00;6.33;6.33;4.53
64861;PMS5003;62652;42.274;-71.436;2024-03-02T00:29:00;7.27;6.87;4.23
64861;PMS5003;62652;42.274;-71.436;2024-03-02T00:30:00;7.47;7.20;4.57
64861;PMS5003;62652;42.274;-71.436;2024-03-02T00:31:01;7.30;6.97;4.97
64861;PMS5003;62652;42.274;-71.436;2024-03-02T00:32:00;7.57;6.83;4.87
64861;PMS5003;62652;42.274;-71.436;2024-03-02T00:33:00;11.37;7.87;4.60
64861;PMS5003;62652;42.274;-71.436;2024-03-02T00:34:00;6.97;6.07;4.33
64861;PMS5003;62652;42.274;-71.436;2024-03-02T00:35:00;7.33;7.30;5.00
64861;PMS5003;62652;42.274;-71.436;2024-03-02T00:36:01;6.57;6.27;3.90
64861;PMS5003;62652;42.274;-71.436;2024-03-02T00:37:00;7.60;6.90;4.77
64861;PMS5003;62652;42.274;-71.436;2024-03-02T00:38:03;6.73;6.70;4.97
64861;PMS5003;62652;42.274;-71.436;2024-03-02T00:39:00;7.23;7.03;4.73
64861;PMS5003;62652;42.274;-71.436;2024-03-02T00:40:00;6.37;6.00;4.17
64861;PMS5003;62652;42.274;-71.436;2024-03-02T00:41:04;6.60;6.17;4.17
64861;PMS5003;62652;42.274;-71.436;2024-03-02T00:42:00;6.43;6.17;3.73
64861;PMS5003;62652;42.274;-71.436;2024-03-02T00:43:00;4.93;4.93;3.03
64861;PMS5003;62652;42.274;-71.436;2024-03-02T00:44:01;7.57;6.20;4.83
64861;PMS5003;62652;42.274;-71.436;2024-03-02T00:45:00;5.97;5.77;4.00
64861;PMS5003;62652;42.274;-71.436;2024-03-02T00:46:00;6.27;6.27;4.07
64861;PMS5003;62652;42.274;-71.436;2024-03-02T00:47:00;7.80;6.60;4.80
64861;PMS5003;62652;42.274;-71.436;2024-03-02T00:48:00;7.40;7.30;4.10
64861;PMS5003;62652;42.274;-71.436;2024-03-02T00:49:01;6.73;6.13;3.80
64861;PMS5003;62652;42.274;-71.436;2024-03-02T00:50:00;7.87;7.20;5.00
64861;PMS5003;62652;42.274;-71.436;2024-03-02T00:51:00;7.27;7.17;4.83
64861;PMS5003;62652;42.274;-71.436;2024-03-02T00:52:00;5.83;5.43;4.43
64861;PMS5003;62652;42.274;-71.436;2024-03-02T00:53:01;6.77;6.00;4.67
64861;PMS5003;62652;42.274;-71.436;2024-03-02T00:54:01;7.70;7.47;5.40
64861;PMS5003;62652;42.274;-71.436;2024-03-02T00:55:00;7.83;6.57;4.30
64861;PMS5003;62652;42.274;-71.436;2024-03-02T00:56:00;7.20;7.20;5.00
64861;PMS5003;62652;42.274;-71.436;2024-03-02T00:57:00;6.47;5.73;4.23
64861;PMS5003;62652;42.274;-71.436;2024-03-02T00:58:00;5.60;5.20;3.17
64861;PMS5003;62652;42.274;-71.436;2024-03-02T00:59:00;7.80;7.00;5.00
64861;PMS5003;62652;42.274;-71.436;2024-03-02T01:00:00;6.73;6.73;4.43
64861;PMS5003;62652;42.274;-71.436;2024-03-02T01:01:00;6.63;6.63;4.97
64861;PMS5003;62652;42.274;-71.436;2024-03-02T01:02:00;6.90;6.87;5.00
64861;PMS5003;62652;42.274;-71.436;2024-03-02T01:03:00;6.93;5.60;4.23
64861;PMS5003;62652;42.274;-71.436;2024-03-02T01:04:00;7.97;7.03;4.93
64861;PMS5003;62652;42.274;-71.436;2024-03-02T01:05:00;7.00;7.00;4.80
64861;PMS5003;62652;42.274;-71.436;2024-03-02T01:06:00;8.17;7.30;5.30
64861;PMS5003;62652;42.274;-71.436;2024-03-02T01:07:00;7.53;7.33;4.90
64861;PMS5003;62652;42.274;-71.436;2024-03-02T01:08:00;7.07;6.63;4.57
64861;PMS5003;62652;42.274;-71.436;2024-03-02T01:09:00;6.93;6.27;4.80
64861;PMS5003;62652;42.274;-71.436;2024-03-02T01:10:00;6.70;6.47;4.90
64861;PMS5003;62652;42.274;-71.436;2024-03-02T01:11:00;8.93;7.07;5.07
64861;PMS5003;62652;42.274;-71.436;2024-03-02T01:12:00;7.87;6.93;4.53
64861;PMS5003;62652;42.274;-71.436;2024-03-02T01:13:00;8.53;8.30;5.00
64861;PMS5003;62652;42.274;-71.436;2024-03-02T01:14:00;6.80;6.43;4.67
64861;PMS5003;62652;42.274;-71.436;2024-03-02T01:15:00;7.50;6.67;4.27
64861;PMS5003;62652;42.274;-71.436;2024-03-02T01:16:00;8.23;7.10;4.77
64861;PMS5003;62652;42.274;-71.436;2024-03-02T01:17:00;7.83;7.03;4.90
64861;PMS5003;62652;42.274;-71.436;2024-03-02T01:18:00;7.63;6.90;5.33
64861;PMS5003;62652;42.274;-71.436;2024-03-02T01:19:00;5.90;5.77;4.47
64861;PMS5003;62652;42.274;-71.436;2024-03-02T01:20:00;7.90;7.10;5.10
64861;PMS5003;62652;42.274;-71.436;2024-03-02T01:21:00;8.80;8.03;5.40
64861;PMS5003;62652;42.274;-71.436;2024-03-02T01:22:00;6.40;6.30;4.90
64861;PMS5003;62652;42.274;-71.436;2024-03-02T01:23:00;5.70;5.70;4.13
64861;PMS5003;62652;42.274;-71.436;2024-03-02T01:24:00;9.00;8.60;5.43
64861;PMS5003;62652;42.274;-71.436;2024-03-02T01:25:00;7.43;6.70;5.43
64861;PMS5003;62652;42.274;-71.436;2024-03-02T01:26:00;6.37;5.80;4.13
64861;PMS5003;62652;42.274;-71.436;2024-03-02T01:27:00;9.57;8.10;5.00
64861;PMS5003;62652;42.274;-71.436;2024-03-02T01:28:00;7.50;7.17;5.43
64861;PMS5003;62652;42.274;-71.436;2024-03-02T01:29:00;9.57;7.47;4.93
64861;PMS5003;62652;42.274;-71.436;2024-03-02T01:30:00;7.57;7.20;5.97
64861;PMS5003;62652;42.274;-71.436;2024-03-02T01:31:00;7.90;6.80;5.00
64861;PMS5003;62652;42.274;-71.436;2024-03-02T01:32:00;8.90;7.97;5.20
64861;PMS5003;62652;42.274;-71.436;2024-03-02T01:33:00;10.23;7.67;4.97
64861;PMS5003;62652;42.274;-71.436;2024-03-02T01:34:00;6.87;6.10;4.53
64861;PMS5003;62652;42.274;-71.436;2024-03-02T01:35:00;7.67;7.43;5.23
64861;PMS5003;62652;42.274;-71.436;2024-03-02T01:36:00;8.10;7.00;4.80
64861;PMS5003;62652;42.274;-71.436;2024-03-02T01:37:01;6.30;5.93;4.70
64861;PMS5003;62652;42.274;-71.436;2024-03-02T01:38:00;10.90;9.07;6.70
64861;PMS5003;62652;42.274;-71.436;2024-03-02T01:39:00;7.60;7.27;4.60
64861;PMS5003;62652;42.274;-71.436;2024-03-02T01:40:00;6.67;6.37;4.67
64861;PMS5003;62652;42.274;-71.436;2024-03-02T01:41:00;7.93;7.03;5.70
64861;PMS5003;62652;42.274;-71.436;2024-03-02T01:42:00;9.23;8.17;6.13
64861;PMS5003;62652;42.274;-71.436;2024-03-02T01:43:00;6.70;6.23;4.33
64861;PMS5003;62652;42.274;-71.436;2024-03-02T01:44:00;6.10;6.10;4.00
64861;PMS5003;62652;42.274;-71.436;2024-03-02T01:45:00;9.20;8.07;5.67
64861;PMS5003;62652;42.274;-71.436;2024-03-02T01:46:00;8.30;6.93;5.27
64861;PMS5003;62652;42.274;-71.436;2024-03-02T01:47:00;8.10;7.67;5.30
64861;PMS5003;62652;42.274;-71.436;2024-03-02T01:48:00;6.83;6.63;4.47
64861;PMS5003;62652;42.274;-71.436;2024-03-02T01:49:00;8.07;7.10;5.00
64861;PMS5003;62652;42.274;-71.436;2024-03-02T01:50:00;8.73;7.47;5.00
64861;PMS5003;62652;42.274;-71.436;2024-03-02T01:51:00;7.77;7.37;5.53
64861;PMS5003;62652;42.274;-71.436;2024-03-02T01:52:00;9.53;8.77;6.10
64861;PMS5003;62652;42.274;-71.436;2024-03-02T01:53:00;10.87;9.73;6.70
64861;PMS5003;62652;42.274;-71.436;2024-03-02T01:54:00;9.20;8.33;6.27
64861;PMS5003;62652;42.274;-71.436;2024-03-02T01:55:00;9.90;8.90;5.83
64861;PMS5003;62652;42.274;-71.436;2024-03-02T01:56:00;6.20;5.67;4.00
64861;PMS5003;62652;42.274;-71.436;2024-03-02T01:57:00;10.80;9.60;6.07
64861;PMS5003;62652;42.274;-71.436;2024-03-02T01:58:00;8.80;8.00;5.43
64861;PMS5003;62652;42.274;-71.436;2024-03-02T01:59:00;6.57;6.57;4.50
64861;PMS5003;62652;42.274;-71.436;2024-03-02T02:00:00;10.60;7.63;5.93
64861;PMS5003;62652;42.274;-71.436;2024-03-02T02:01:00;9.13;8.30;5.50
64861;PMS5003;62652;42.274;-71.436;2024-03-02T02:02:00;11.80;10.80;6.20
64861;PMS5003;62652;42.274;-71.436;2024-03-02T02:03:00;7.17;6.87;5.00
64861;PMS5003;62652;42.274;-71.436;2024-03-02T02:04:00;6.93;6.27;5.07
64861;PMS5003;62652;42.274;-71.436;2024-03-02T02:05:00;6.93;6.93;4.77
64861;PMS5003;62652;42.274;-71.436;2024-03-02T02:06:00;10.43;9.77;6.53
64861;PMS5003;62652;42.274;-71.436;2024-03-02T02:07:00;8.23;6.73;5.20
64861;PMS5003;62652;42.274;-71.436;2024-03-02T02:08:00;9.90;8.57;5.63
64861;PMS5003;62652;42.274;-71.436;2024-03-02T02:09:00;9.20;7.53;6.20
64861;PMS5003;62652;42.274;-71.436;2024-03-02T02:10:01;9.20;8.73;5.30
64861;PMS5003;62652;42.274;-71.436;2024-03-02T02:11:00;10.70;9.97;6.50
64861;PMS5003;62652;42.274;-71.436;2024-03-02T02:12:00;10.83;8.70;5.30
64861;PMS5003;62652;42.274;-71.436;2024-03-02T02:13:00;9.03;8.57;5.53
64861;PMS5003;62652;42.274;-71.436;2024-03-02T02:14:00;10.47;10.47;6.43
64861;PMS5003;62652;42.274;-71.436;2024-03-02T02:15:00;10.80;10.20;6.33
64861;PMS5003;62652;42.274;-71.436;2024-03-02T02:16:04;11.00;10.77;6.87
64861;PMS5003;62652;42.274;-71.436;2024-03-02T02:17:00;8.80;8.07;6.00
64861;PMS5003;62652;42.274;-71.436;2024-03-02T02:18:00;11.17;9.53;6.10
64861;PMS5003;62652;42.274;-71.436;2024-03-02T02:19:00;7.00;6.67;4.90
64861;PMS5003;62652;42.274;-71.436;2024-03-02T02:20:00;8.83;8.50;6.20
64861;PMS5003;62652;42.274;-71.436;2024-03-02T02:21:02;10.30;9.03;6.00
64861;PMS5003;62652;42.274;-71.436;2024-03-02T02:22:00;9.50;8.13;6.07
64861;PMS5003;62652;42.274;-71.436;2024-03-02T02:23:01;9.93;8.83;6.33
64861;PMS5003;62652;42.274;-71.436;2024-03-02T02:24:00;10.53;8.33;6.33
64861;PMS5003;62652;42.274;-71.436;2024-03-02T02:25:00;10.50;10.00;6.53
64861;PMS5003;62652;42.274;-71.436;2024-03-02T02:26:00;11.27;10.53;6.10
64861;PMS5003;62652;42.274;-71.436;2024-03-02T02:27:00;10.20;8.43;6.53
64861;PMS5003;62652;42.274;-71.436;2024-03-02T02:28:00;10.37;8.37;6.00
64861;PMS5003;62652;42.274;-71.436;2024-03-02T02:29:00;7.87;7.00;4.80
64861;PMS5003;62652;42.274;-71.436;2024-03-02T02:30:00;9.77;8.80;5.97
64861;PMS5003;62652;42.274;-71.436;2024-03-02T02:31:00;10.30;9.03;6.37
64861;PMS5003;62652;42.274;-71.436;2024-03-02T02:32:00;11.67;11.20;7.27
64861;PMS5003;62652;42.274;-71.436;2024-03-02T02:33:00;10.53;9.20;5.33
64861;PMS5003;62652;42.274;-71.436;2024-03-02T02:34:00;12.17;10.50;6.17
64861;PMS5003;62652;42.274;-71.436;2024-03-02T02:35:00;10.57;9.20;6.07
64861;PMS5003;62652;42.274;-71.436;2024-03-02T02:36:00;10.43;9.43;6.43
64861;PMS5003;62652;42.274;-71.436;2024-03-02T02:37:00;12.80;11.37;8.23
64861;PMS5003;62652;42.274;-71.436;2024-03-02T02:38:00;9.43;9.40;6.27
64861;PMS5003;62652;42.274;-71.436;2024-03-02T02:39:02;8.53;7.90;6.10
64861;PMS5003;62652;42.274;-71.436;2024-03-02T02:40:00;9.33;9.27;6.47
64861;PMS5003;62652;42.274;-71.436;2024-03-02T02:41:00;10.47;9.80;5.70
64861;PMS5003;62652;42.274;-71.436;2024-03-02T02:42:00;13.50;12.97;8.43
64861;PMS5003;62652;42.274;-71.436;2024-03-02T02:43:00;12.27;11.07;8.07
64861;PMS5003;62652;42.274;-71.436;2024-03-02T02:44:00;12.17;11.50;7.90
64861;PMS5003;62652;42.274;-71.436;2024-03-02T02:45:00;11.20;9.63;5.80
64861;PMS5003;62652;42.274;-71.436;2024-03-02T02:46:00;13.70;11.90;7.87
64861;PMS5003;62652;42.274;-71.436;2024-03-02T02:47:00;11.07;10.70;6.80
64861;PMS5003;62652;42.274;-71.436;2024-03-02T02:48:00;17.77;13.40;7.73
64861;PMS5003;62652;42.274;-71.436;2024-03-02T02:49:00;17.80;15.10;9.67
64861;PMS5003;62652;42.274;-71.436;2024-03-02T02:50:00;16.77;14.13;9.17
64861;PMS5003;62652;42.274;-71.436;2024-03-02T02:51:00;15.93;14.43;9.43
64861;PMS5003;62652;42.274;-71.436;2024-03-02T02:52:00;13.57;12.63;8.47
64861;PMS5003;62652;42.274;-71.436;2024-03-02T02:53:00;11.00;10.90;8.47
64861;PMS5003;62652;42.274;-71.436;2024-03-02T02:54:00;11.07;10.83;7.30
64861;PMS5003;62652;42.274;-71.436;2024-03-02T02:55:01;10.97;10.43;8.33
64861;PMS5003;62652;42.274;-71.436;2024-03-02T02:56:00;12.30;10.47;7.10
64861;PMS5003;62652;42.274;-71.436;2024-03-02T02:57:00;11.57;11.33;8.07
64861;PMS5003;62652;42.274;-71.436;2024-03-02T02:58:00;11.37;10.50;6.37
64861;PMS5003;62652;42.274;-71.436;2024-03-02T02:59:00;11.57;11.13;8.10
64861;PMS5003;62652;42.274;-71.436;2024-03-02T03:00:00;10.70;10.50;7.20
64861;PMS5003;62652;42.274;-71.436;2024-03-02T03:01:00;12.37;10.73;6.43
64861;PMS5003;62652;42.274;-71.436;2024-03-02T03:02:00;13.90;11.33;7.00
64861;PMS5003;62652;42.274;-71.436;2024-03-02T03:03:00;9.83;7.90;6.00
64861;PMS5003;62652;42.274;-71.436;2024-03-02T03:04:00;10.23;9.97;6.10
64861;PMS5003;62652;42.274;-71.436;2024-03-02T03:05:00;11.23;10.37;6.27
64861;PMS5003;62652;42.274;-71.436;2024-03-02T03:06:00;11.17;9.93;5.30
64861;PMS5003;62652;42.274;-71.436;2024-03-02T03:07:00;9.00;9.00;5.87
64861;PMS5003;62652;42.274;-71.436;2024-03-02T03:08:00;12.03;10.93;7.07
64861;PMS5003;62652;42.274;-71.436;2024-03-02T03:09:00;11.17;10.07;5.70
64861;PMS5003;62652;42.274;-71.436;2024-03-02T03:10:00;11.40;10.53;6.80
64861;PMS5003;62652;42.274;-71.436;2024-03-02T03:11:00;9.47;9.37;5.50
64861;PMS5003;62652;42.274;-71.436;2024-03-02T03:12:00;11.83;10.70;6.50
64861;PMS5003;62652;42.274;-71.436;2024-03-02T03:13:00;9.47;9.47;6.57
64861;PMS5003;62652;42.274;-71.436;2024-03-02T03:14:00;9.43;8.30;5.90
64861;PMS5003;62652;42.274;-71.436;2024-03-02T03:15:01;12.17;10.80;6.00
64861;PMS5003;62652;42.274;-71.436;2024-03-02T03:16:00;9.57;8.63;5.80
64861;PMS5003;62652;42.274;-71.436;2024-03-02T03:17:00;9.97;9.97;6.10
64861;PMS5003;62652;42.274;-71.436;2024-03-02T03:18:00;10.47;9.87;6.17
64861;PMS5003;62652;42.274;-71.436;2024-03-02T03:19:00;9.33;7.70;5.30
64861;PMS5003;62652;42.274;-71.436;2024-03-02T03:20:00;10.23;9.70;6.10
64861;PMS5003;62652;42.274;-71.436;2024-03-02T03:21:00;9.37;8.43;5.37
64861;PMS5003;62652;42.274;-71.436;2024-03-02T03:22:00;9.83;8.87;5.63
64861;PMS5003;62652;42.274;-71.436;2024-03-02T03:23:00;9.20;8.97;5.83
64861;PMS5003;62652;42.274;-71.436;2024-03-02T03:24:00;9.20;9.20;5.83
64861;PMS5003;62652;42.274;-71.436;2024-03-02T03:25:00;7.20;7.20;5.40
64861;PMS5003;62652;42.274;-71.436;2024-03-02T03:26:00;9.47;7.60;5.43
64861;PMS5003;62652;42.274;-71.436;2024-03-02T03:27:00;6.17;6.00;4.37
64861;PMS5003;62652;42.274;-71.436;2024-03-02T03:28:00;10.13;8.07;5.27
64861;PMS5003;62652;42.274;-71.436;2024-03-02T03:29:00;6.23;6.20;5.00
64861;PMS5003;62652;42.274;-71.436;2024-03-02T03:30:00;7.80;6.70;5.27
64861;PMS5003;62652;42.274;-71.436;2024-03-02T03:31:00;9.60;9.47;6.27
64861;PMS5003;62652;42.274;-71.436;2024-03-02T03:32:00;9.90;8.23;5.83
64861;PMS5003;62652;42.274;-71.436;2024-03-02T03:33:00;11.30;10.23;6.27
64861;PMS5003;62652;42.274;-71.436;2024-03-02T03:34:00;10.60;10.30;5.43
64861;PMS5003;62652;42.274;-71.436;2024-03-02T03:35:00;7.77;6.00;5.03
64861;PMS5003;62652;42.274;-71.436;2024-03-02T03:36:00;7.53;7.33;5.00
64861;PMS5003;62652;42.274;-71.436;2024-03-02T03:37:00;9.70;9.23;5.77
64861;PMS5003;62652;42.274;-71.436;2024-03-02T03:38:01;8.77;8.33;5.63
64861;PMS5003;62652;42.274;-71.436;2024-03-02T03:39:00;10.00;9.23;5.80
64861;PMS5003;62652;42.274;-71.436;2024-03-02T03:40:01;9.83;9.50;5.80
64861;PMS5003;62652;42.274;-71.436;2024-03-02T03:41:00;12.10;10.50;6.00
64861;PMS5003;62652;42.274;-71.436;2024-03-02T03:42:00;14.13;11.63;7.50
64861;PMS5003;62652;42.274;-71.436;2024-03-02T03:43:00;10.07;9.80;6.23
64861;PMS5003;62652;42.274;-71.436;2024-03-02T03:44:00;12.43;11.23;6.73
64861;PMS5003;62652;42.274;-71.436;2024-03-02T03:45:00;13.47;11.33;6.90
64861;PMS5003;62652;42.274;-71.436;2024-03-02T03:46:00;10.67;9.63;6.10
64861;PMS5003;62652;42.274;-71.436;2024-03-02T03:47:00;11.23;9.07;6.23
64861;PMS5003;62652;42.274;-71.436;2024-03-02T03:48:00;10.83;10.37;7.27
64861;PMS5003;62652;42.274;-71.436;2024-03-02T03:49:00;13.10;9.70;5.67
64861;PMS5003;62652;42.274;-71.436;2024-03-02T03:50:00;11.73;11.07;6.37
64861;PMS5003;62652;42.274;-71.436;2024-03-02T03:51:00;10.20;9.90;6.30
64861;PMS5003;62652;42.274;-71.436;2024-03-02T03:52:00;9.20;7.73;6.00
64861;PMS5003;62652;42.274;-71.436;2024-03-02T03:53:00;8.13;6.60;4.70
64861;PMS5003;62652;42.274;-71.436;2024-03-02T03:54:00;6.53;6.47;3.90
64861;PMS5003;62652;42.274;-71.436;2024-03-02T03:55:00;8.10;7.40;5.00
64861;PMS5003;62652;42.274;-71.436;2024-03-02T03:56:00;10.23;10.00;6.50
64861;PMS5003;62652;42.274;-71.436;2024-03-02T03:57:00;10.00;8.77;5.37
64861;PMS5003;62652;42.274;-71.436;2024-03-02T03:58:00;9.57;8.73;6.07
64861;PMS5003;62652;42.274;-71.436;2024-03-02T03:59:00;7.93;7.30;4.70
64861;PMS5003;62652;42.274;-71.436;2024-03-02T04:00:03;8.33;7.57;5.23
64861;PMS5003;62652;42.274;-71.436;2024-03-02T04:01:00;7.80;7.60;5.40
64861;PMS5003;62652;42.274;-71.436;2024-03-02T04:02:00;10.13;9.20;5.40
64861;PMS5003;62652;42.274;-71.436;2024-03-02T04:03:00;9.63;8.47;4.87
64861;PMS5003;62652;42.274;-71.436;2024-03-02T04:04:00;7.23;6.63;4.70
64861;PMS5003;62652;42.274;-71.436;2024-03-02T04:05:00;9.60;9.60;4.97
64861;PMS5003;62652;42.274;-71.436;2024-03-02T04:06:00;8.77;8.27;5.67
64861;PMS5003;62652;42.274;-71.436;2024-03-02T04:07:00;8.87;8.17;4.50
64861;PMS5003;62652;42.274;-71.436;2024-03-02T04:08:00;9.60;8.30;4.90
64861;PMS5003;62652;42.274;-71.436;2024-03-02T04:09:00;6.73;6.17;5.00
64861;PMS5003;62652;42.274;-71.436;2024-03-02T04:10:00;8.53;7.70;5.30
64861;PMS5003;62652;42.274;-71.436;2024-03-02T04:11:00;6.20;6.20;4.63
64861;PMS5003;62652;42.274;-71.436;2024-03-02T04:12:00;7.10;6.97;4.57
64861;PMS5003;62652;42.274;-71.436;2024-03-02T04:13:00;7.07;6.40;5.13
64861;PMS5003;62652;42.274;-71.436;2024-03-02T04:14:00;7.50;6.43;4.57
64861;PMS5003;62652;42.274;-71.436;2024-03-02T04:15:00;7.97;7.63;5.67
64861;PMS5003;62652;42.274;-71.436;2024-03-02T04:16:00;7.40;7.33;4.50
64861;PMS5003;62652;42.274;-71.436;2024-03-02T04:17:00;8.13;7.40;5.47
64861;PMS5003;62652;42.274;-71.436;2024-03-02T04:18:00;7.80;7.23;5.73
64861;PMS5003;62652;42.274;-71.436;2024-03-02T04:19:00;10.47;9.80;6.57
64861;PMS5003;62652;42.274;-71.436;2024-03-02T04:20:00;10.07;8.43;6.07
64861;PMS5003;62652;42.274;-71.436;2024-03-02T04:21:00;9.17;7.73;4.80
64861;PMS5003;62652;42.274;-71.436;2024-03-02T04:22:00;6.80;6.63;4.83
64861;PMS5003;62652;42.274;-71.436;2024-03-02T04:23:00;8.67;6.80;4.90
64861;PMS5003;62652;42.274;-71.436;2024-03-02T04:24:00;9.87;8.33;5.20
64861;PMS5003;62652;42.274;-71.436;2024-03-02T04:25:00;8.97;6.67;5.23
64861;PMS5003;62652;42.274;-71.436;2024-03-02T04:26:00;8.07;7.53;5.00
64861;PMS5003;62652;42.274;-71.436;2024-03-02T04:27:00;9.30;7.13;5.23
64861;PMS5003;62652;42.274;-71.436;2024-03-02T04:28:00;6.77;6.60;4.73
64861;PMS5003;62652;42.274;-71.436;2024-03-02T04:29:00;7.43;7.37;5.37
64861;PMS5003;62652;42.274;-71.436;2024-03-02T04:30:00;6.77;6.10;3.73
64861;PMS5003;62652;42.274;-71.436;2024-03-02T04:31:00;7.60;7.40;4.90
64861;PMS5003;62652;42.274;-71.436;2024-03-02T04:32:00;7.80;6.57;4.37
64861;PMS5003;62652;42.274;-71.436;2024-03-02T04:33:00;8.40;7.50;4.37
64861;PMS5003;62652;42.274;-71.436;2024-03-02T04:34:00;6.30;6.10;4.13
64861;PMS5003;62652;42.274;-71.436;2024-03-02T04:35:00;10.50;8.90;6.70
64861;PMS5003;62652;42.274;-71.436;2024-03-02T04:36:00;7.40;7.40;4.90
64861;PMS5003;62652;42.274;-71.436;2024-03-02T04:37:00;10.33;7.47;4.87
64861;PMS5003;62652;42.274;-71.436;2024-03-02T04:38:00;7.43;6.87;4.97
64861;PMS5003;62652;42.274;-71.436;2024-03-02T04:39:00;6.70;6.47;4.27
64861;PMS5003;62652;42.274;-71.436;2024-03-02T04:40:00;6.33;6.20;4.13
64861;PMS5003;62652;42.274;-71.436;2024-03-02T04:41:00;9.83;7.23;5.03
64861;PMS5003;62652;42.274;-71.436;2024-03-02T04:42:00;10.27;8.63;5.83
64861;PMS5003;62652;42.274;-71.436;2024-03-02T04:43:00;8.00;7.00;5.00
64861;PMS5003;62652;42.274;-71.436;2024-03-02T04:44:01;8.90;8.90;6.17
64861;PMS5003;62652;42.274;-71.436;2024-03-02T04:45:00;7.13;6.20;4.60
64861;PMS5003;62652;42.274;-71.436;2024-03-02T04:46:00;9.70;9.53;4.37
64861;PMS5003;62652;42.274;-71.436;2024-03-02T04:47:00;9.50;8.30;6.00
64861;PMS5003;62652;42.274;-71.436;2024-03-02T04:48:00;7.13;6.13;4.20
64861;PMS5003;62652;42.274;-71.436;2024-03-02T04:49:00;8.60;8.10;5.20
64861;PMS5003;62652;42.274;-71.436;2024-03-02T04:50:00;7.20;6.73;5.17
64861;PMS5003;62652;42.274;-71.436;2024-03-02T04:51:00;6.83;6.17;4.50
64861;PMS5003;62652;42.274;-71.436;2024-03-02T04:52:00;6.60;6.27;4.67
64861;PMS5003;62652;42.274;-71.436;2024-03-02T04:53:00;7.40;7.40;5.47
64861;PMS5003;62652;42.274;-71.436;2024-03-02T04:54:00;8.30;7.10;5.10
64861;PMS5003;62652;42.274;-71.436;2024-03-02T04:55:00;7.00;6.63;5.00
64861;PMS5003;62652;42.274;-71.436;2024-03-02T04:56:00;8.97;7.63;4.87
64861;PMS5003;62652;42.274;-71.436;2024-03-02T04:57:00;8.37;6.67;5.40
64861;PMS5003;62652;42.274;-71.436;2024-03-02T04:58:00;8.23;8.13;6.13
64861;PMS5003;62652;42.274;-71.436;2024-03-02T04:59:00;8.63;7.60;4.83
64861;PMS5003;62652;42.274;-71.436;2024-03-02T05:00:00;6.60;6.60;5.00
64861;PMS5003;62652;42.274;-71.436;2024-03-02T05:01:00;7.70;7.23;4.70
64861;PMS5003;62652;42.274;-71.436;2024-03-02T05:02:00;10.30;7.33;5.00
64861;PMS5003;62652;42.274;-71.436;2024-03-02T05:03:00;8.30;7.17;5.23
64861;PMS5003;62652;42.274;-71.436;2024-03-02T05:04:00;7.63;6.43;4.53
64861;PMS5003;62652;42.274;-71.436;2024-03-02T05:05:00;9.33;9.10;5.73
64861;PMS5003;62652;42.274;-71.436;2024-03-02T05:06:00;9.40;7.47;5.50
64861;PMS5003;62652;42.274;-71.436;2024-03-02T05:07:00;11.87;9.97;6.93
64861;PMS5003;62652;42.274;-71.436;2024-03-02T05:08:00;14.87;14.50;11.07
64861;PMS5003;62652;42.274;-71.436;2024-03-02T05:09:00;8.00;6.67;5.03
64861;PMS5003;62652;42.274;-71.436;2024-03-02T05:10:00;8.80;7.70;5.07
64861;PMS5003;62652;42.274;-71.436;2024-03-02T05:11:00;6.83;6.43;4.13
64861;PMS5003;62652;42.274;-71.436;2024-03-02T05:12:00;6.73;6.13;4.40
64861;PMS5003;62652;42.274;-71.436;2024-03-02T05:13:00;7.33;7.33;5.03
64861;PMS5003;62652;42.274;-71.436;2024-03-02T05:14:00;6.43;6.10;4.33
64861;PMS5003;62652;42.274;-71.436;2024-03-02T05:15:00;5.90;4.80;3.50
64861;PMS5003;62652;42.274;-71.436;2024-03-02T05:16:00;7.23;6.67;5.07
64861;PMS5003;62652;42.274;-71.436;2024-03-02T05:17:00;8.97;8.57;5.67
64861;PMS5003;62652;42.274;-71.436;2024-03-02T05:18:00;7.70;6.67;4.77
64861;PMS5003;62652;42.274;-71.436;2024-03-02T05:19:00;5.37;5.27;3.97
64861;PMS5003;62652;42.274;-71.436;2024-03-02T05:20:00;7.93;6.63;5.00
64861;PMS5003;62652;42.274;-71.436;2024-03-02T05:21:00;8.13;6.57;3.53
64861;PMS5003;62652;42.274;-71.436;2024-03-02T05:22:00;5.77;5.40;4.00
64861;PMS5003;62652;42.274;-71.436;2024-03-02T05:23:00;7.50;7.23;5.30
64861;PMS5003;62652;42.274;-71.436;2024-03-02T05:24:00;8.43;6.50;4.57
64861;PMS5003;62652;42.274;-71.436;2024-03-02T05:25:00;6.87;5.93;4.47
64861;PMS5003;62652;42.274;-71.436;2024-03-02T05:26:00;5.30;4.93;3.77
64861;PMS5003;62652;42.274;-71.436;2024-03-02T05:27:00;7.17;6.40;3.60
64861;PMS5003;62652;42.274;-71.436;2024-03-02T05:28:00;9.53;8.17;3.80
64861;PMS5003;62652;42.274;-71.436;2024-03-02T05:29:00;5.60;5.60;4.30
64861;PMS5003;62652;42.274;-71.436;2024-03-02T05:30:00;5.67;5.63;4.43
64861;PMS5003;62652;42.274;-71.436;2024-03-02T05:31:00;5.37;5.07;3.87
64861;PMS5003;62652;42.274;-71.436;2024-03-02T05:32:00;5.67;5.10;4.10
64861;PMS5003;62652;42.274;-71.436;2024-03-02T05:33:00;6.27;5.90;3.97
64861;PMS5003;62652;42.274;-71.436;2024-03-02T05:34:00;6.40;4.63;3.90
64861;PMS5003;62652;42.274;-71.436;2024-03-02T05:35:00;4.77;4.53;3.27
64861;PMS5003;62652;42.274;-71.436;2024-03-02T05:36:00;7.23;5.57;3.37
64861;PMS5003;62652;42.274;-71.436;2024-03-02T05:37:00;5.70;4.47;3.03
64861;PMS5003;62652;42.274;-71.436;2024-03-02T05:38:00;5.70;5.33;3.50
64861;PMS5003;62652;42.274;-71.436;2024-03-02T05:39:00;5.57;4.97;3.83